sensor_id;sensor_type;location;lat;lon;timestamp;temperature;humidity
29777;DHT22;16677;52.224;7.484;2023-11-22T00:02:12;4.40;13.90
29777;DHT22;16677;52.224;7.484;2023-11-22T00:04:41;4.40;8.80
29777;DHT22;16677;52.224;7.484;2023-11-22T00:07:08;4.30;1.00
29777;DHT22;16677;52.224;7.484;2023-11-22T00:09:47;4.20;1.00
29777;DHT22;16677;52.224;7.484;2023-11-22T00:13:12;4.10;1.00
29777;DHT22;16677;52.224;7.484;2023-11-22T00:26:30;4.00;26.40
29777;DHT22;16677;52.224;7.484;2023-11-22T00:29:00;4.10;16.90
29777;DHT22;16677;52.224;7.484;2023-11-22T00:31:27;4.00;11.20
29777;DHT22;16677;52.224;7.484;2023-11-22T00:33:54;4.00;14.70
29777;DHT22;16677;52.224;7.484;2023-11-22T00:36:21;4.10;10.30
29777;DHT22;16677;52.224;7.484;2023-11-22T00:38:48;4.00;1.00
29777;DHT22;16677;52.224;7.484;2023-11-22T00:41:16;4.00;1.00
29777;DHT22;16677;52.224;7.484;2023-11-22T00:43:43;4.10;1.00
29777;DHT22;16677;52.224;7.484;2023-11-22T00:46:10;4.10;1.00
29777;DHT22;16677;52.224;7.484;2023-11-22T00:48:37;4.20;1.00
29777;DHT22;16677;52.224;7.484;2023-11-22T00:51:05;4.20;1.00
29777;DHT22;16677;52.224;7.484;2023-11-22T00:53:38;4.10;1.00
29777;DHT22;16677;52.224;7.484;2023-11-22T00:56:05;4.10;1.00
29777;DHT22;16677;52.224;7.484;2023-11-22T00:58:34;4.00;1.00
29777;DHT22;16677;52.224;7.484;2023-11-22T01:01:01;3.80;1.00
29777;DHT22;16677;52.224;7.484;2023-11-22T01:03:28;3.70;1.00
29777;DHT22;16677;52.224;7.484;2023-11-22T01:05:55;3.80;1.00
29777;DHT22;16677;52.224;7.484;2023-11-22T01:08:22;3.80;1.00
29777;DHT22;16677;52.224;7.484;2023-11-22T01:10:49;3.70;1.00
29777;DHT22;16677;52.224;7.484;2023-11-22T01:13:16;3.80;1.00
29777;DHT22;16677;52.224;7.484;2023-11-22T01:15:43;3.70;1.00
29777;DHT22;16677;52.224;7.484;2023-11-22T01:18:11;3.60;2.40
29777;DHT22;16677;52.224;7.484;2023-11-22T01:20:38;3.60;21.50
29777;DHT22;16677;52.224;7.484;2023-11-22T01:23:05;3.60;16.30
29777;DHT22;16677;52.224;7.484;2023-11-22T01:25:32;3.50;28.00
29777;DHT22;16677;52.224;7.484;2023-11-22T01:27:59;3.60;60.00
29777;DHT22;16677;52.224;7.484;2023-11-22T01:30:27;3.50;97.10
29777;DHT22;16677;52.224;7.484;2023-11-22T01:32:55;3.50;73.80
29777;DHT22;16677;52.224;7.484;2023-11-22T01:35:22;3.50;58.40
29777;DHT22;16677;52.224;7.484;2023-11-22T01:37:51;3.50;99.90
29777;DHT22;16677;52.224;7.484;2023-11-22T01:40:31;3.40;99.90
29777;DHT22;16677;52.224;7.484;2023-11-22T01:42:59;3.50;99.90
29777;DHT22;16677;52.224;7.484;2023-11-22T01:45:26;3.40;99.90
29777;DHT22;16677;52.224;7.484;2023-11-22T01:51:21;3.40;99.90
29777;DHT22;16677;52.224;7.484;2023-11-22T02:03:55;3.20;99.90
29777;DHT22;16677;52.224;7.484;2023-11-22T02:06:23;3.20;99.90
29777;DHT22;16677;52.224;7.484;2023-11-22T02:08:50;3.20;99.90
29777;DHT22;16677;52.224;7.484;2023-11-22T02:11:18;3.10;99.90
29777;DHT22;16677;52.224;7.484;2023-11-22T02:13:49;3.20;99.90
29777;DHT22;16677;52.224;7.484;2023-11-22T02:16:17;3.10;99.90
29777;DHT22;16677;52.224;7.484;2023-11-22T02:18:47;3.10;99.90
29777;DHT22;16677;52.224;7.484;2023-11-22T02:21:16;3.30;96.30
29777;DHT22;16677;52.224;7.484;2023-11-22T02:23:44;3.30;94.50
29777;DHT22;16677;52.224;7.484;2023-11-22T02:26:11;3.20;89.60
29777;DHT22;16677;52.224;7.484;2023-11-22T02:28:40;3.20;73.70
29777;DHT22;16677;52.224;7.484;2023-11-22T02:31:08;3.30;94.70
29777;DHT22;16677;52.224;7.484;2023-11-22T02:33:45;3.20;75.30
29777;DHT22;16677;52.224;7.484;2023-11-22T02:36:16;3.50;88.40
29777;DHT22;16677;52.224;7.484;2023-11-22T02:38:43;3.50;13.60
29777;DHT22;16677;52.224;7.484;2023-11-22T02:41:13;3.40;1.00
29777;DHT22;16677;52.224;7.484;2023-11-22T02:43:40;3.40;1.00
29777;DHT22;16677;52.224;7.484;2023-11-22T02:46:11;3.40;1.00
29777;DHT22;16677;52.224;7.484;2023-11-22T02:48:38;3.40;1.00
29777;DHT22;16677;52.224;7.484;2023-11-22T02:51:06;3.30;1.00
29777;DHT22;16677;52.224;7.484;2023-11-22T02:53:36;3.00;1.00
29777;DHT22;16677;52.224;7.484;2023-11-22T02:56:04;2.90;1.00
29777;DHT22;16677;52.224;7.484;2023-11-22T02:58:32;3.00;1.00
29777;DHT22;16677;52.224;7.484;2023-11-22T03:00:59;3.00;1.00
29777;DHT22;16677;52.224;7.484;2023-11-22T03:03:26;2.80;1.00
29777;DHT22;16677;52.224;7.484;2023-11-22T03:05:54;3.00;1.00
29777;DHT22;16677;52.224;7.484;2023-11-22T03:08:21;3.10;1.00
29777;DHT22;16677;52.224;7.484;2023-11-22T03:10:48;2.80;1.00
29777;DHT22;16677;52.224;7.484;2023-11-22T03:13:17;2.70;1.00
29777;DHT22;16677;52.224;7.484;2023-11-22T03:15:45;2.90;1.00
29777;DHT22;16677;52.224;7.484;2023-11-22T03:18:13;2.90;1.00
29777;DHT22;16677;52.224;7.484;2023-11-22T03:20:40;2.80;1.00
29777;DHT22;16677;52.224;7.484;2023-11-22T03:23:09;2.70;1.00
29777;DHT22;16677;52.224;7.484;2023-11-22T03:25:37;2.50;1.00
29777;DHT22;16677;52.224;7.484;2023-11-22T03:28:04;2.40;1.00
29777;DHT22;16677;52.224;7.484;2023-11-22T03:30:31;2.30;1.00
29777;DHT22;16677;52.224;7.484;2023-11-22T03:32:58;2.30;1.00
29777;DHT22;16677;52.224;7.484;2023-11-22T03:35:25;2.20;1.00
29777;DHT22;16677;52.224;7.484;2023-11-22T03:37:52;2.10;2.00
29777;DHT22;16677;52.224;7.484;2023-11-22T03:40:19;2.10;19.20
29777;DHT22;16677;52.224;7.484;2023-11-22T03:42:47;2.10;30.00
29777;DHT22;16677;52.224;7.484;2023-11-22T03:45:14;2.10;29.20
29777;DHT22;16677;52.224;7.484;2023-11-22T03:47:41;2.00;53.50
29777;DHT22;16677;52.224;7.484;2023-11-22T03:50:08;2.00;63.10
29777;DHT22;16677;52.224;7.484;2023-11-22T03:52:37;2.10;52.60
29777;DHT22;16677;52.224;7.484;2023-11-22T03:55:04;2.40;45.90
29777;DHT22;16677;52.224;7.484;2023-11-22T03:57:32;2.40;1.00
29777;DHT22;16677;52.224;7.484;2023-11-22T03:59:59;2.40;1.00
29777;DHT22;16677;52.224;7.484;2023-11-22T04:02:26;2.30;1.00
29777;DHT22;16677;52.224;7.484;2023-11-22T04:04:56;2.10;1.00
29777;DHT22;16677;52.224;7.484;2023-11-22T04:07:23;2.30;1.00
29777;DHT22;16677;52.224;7.484;2023-11-22T04:09:51;2.40;1.00
29777;DHT22;16677;52.224;7.484;2023-11-22T04:12:18;2.40;1.00
29777;DHT22;16677;52.224;7.484;2023-11-22T04:14:45;2.30;1.00
29777;DHT22;16677;52.224;7.484;2023-11-22T04:17:12;2.30;1.00
29777;DHT22;16677;52.224;7.484;2023-11-22T04:19:40;2.40;1.00
29777;DHT22;16677;52.224;7.484;2023-11-22T04:22:08;2.50;1.00
29777;DHT22;16677;52.224;7.484;2023-11-22T04:24:35;2.70;1.00
29777;DHT22;16677;52.224;7.484;2023-11-22T04:27:02;2.60;1.00
29777;DHT22;16677;52.224;7.484;2023-11-22T04:29:29;2.40;1.00
29777;DHT22;16677;52.224;7.484;2023-11-22T04:31:56;2.10;1.00
29777;DHT22;16677;52.224;7.484;2023-11-22T04:34:23;2.20;1.00
29777;DHT22;16677;52.224;7.484;2023-11-22T04:36:50;2.10;1.00
29777;DHT22;16677;52.224;7.484;2023-11-22T04:39:18;2.10;1.00
29777;DHT22;16677;52.224;7.484;2023-11-22T04:41:45;2.30;1.00
29777;DHT22;16677;52.224;7.484;2023-11-22T04:44:12;2.30;1.00
29777;DHT22;16677;52.224;7.484;2023-11-22T04:46:39;2.20;1.00
29777;DHT22;16677;52.224;7.484;2023-11-22T04:49:06;2.00;1.00
29777;DHT22;16677;52.224;7.484;2023-11-22T04:51:34;2.00;1.00
29777;DHT22;16677;52.224;7.484;2023-11-22T04:54:01;1.80;1.00
29777;DHT22;16677;52.224;7.484;2023-11-22T04:56:28;1.70;1.00
29777;DHT22;16677;52.224;7.484;2023-11-22T04:58:55;1.70;1.00
29777;DHT22;16677;52.224;7.484;2023-11-22T05:01:23;1.70;1.00
29777;DHT22;16677;52.224;7.484;2023-11-22T05:03:52;1.60;1.00
29777;DHT22;16677;52.224;7.484;2023-11-22T05:06:19;1.60;1.00
29777;DHT22;16677;52.224;7.484;2023-11-22T05:08:46;1.70;1.00
29777;DHT22;16677;52.224;7.484;2023-11-22T05:11:13;1.70;1.00
29777;DHT22;16677;52.224;7.484;2023-11-22T05:13:42;1.80;1.00
29777;DHT22;16677;52.224;7.484;2023-11-22T05:16:10;1.80;1.00
29777;DHT22;16677;52.224;7.484;2023-11-22T05:18:37;1.60;1.00
29777;DHT22;16677;52.224;7.484;2023-11-22T05:21:04;1.80;14.80
29777;DHT22;16677;52.224;7.484;2023-11-22T05:23:31;1.90;8.00
29777;DHT22;16677;52.224;7.484;2023-11-22T05:25:59;1.80;1.00
29777;DHT22;16677;52.224;7.484;2023-11-22T05:28:28;1.90;33.20
29777;DHT22;16677;52.224;7.484;2023-11-22T05:30:55;1.80;1.00
29777;DHT22;16677;52.224;7.484;2023-11-22T05:33:23;1.70;1.00
29777;DHT22;16677;52.224;7.484;2023-11-22T05:35:51;1.90;1.00
29777;DHT22;16677;52.224;7.484;2023-11-22T05:38:18;2.00;1.00
29777;DHT22;16677;52.224;7.484;2023-11-22T05:40:45;1.80;1.00
29777;DHT22;16677;52.224;7.484;2023-11-22T05:43:44;1.70;1.00
29777;DHT22;16677;52.224;7.484;2023-11-22T05:46:12;1.80;1.00
29777;DHT22;16677;52.224;7.484;2023-11-22T05:48:39;1.60;1.00
29777;DHT22;16677;52.224;7.484;2023-11-22T05:51:07;1.50;1.00
29777;DHT22;16677;52.224;7.484;2023-11-22T05:53:36;1.30;1.00
29777;DHT22;16677;52.224;7.484;2023-11-22T05:56:04;1.20;1.00
29777;DHT22;16677;52.224;7.484;2023-11-22T05:58:35;1.20;1.00
29777;DHT22;16677;52.224;7.484;2023-11-22T06:01:05;1.40;1.00
29777;DHT22;16677;52.224;7.484;2023-11-22T06:03:34;1.50;1.00
29777;DHT22;16677;52.224;7.484;2023-11-22T06:06:02;1.60;1.00
29777;DHT22;16677;52.224;7.484;2023-11-22T06:08:30;1.70;1.00
29777;DHT22;16677;52.224;7.484;2023-11-22T06:11:04;1.40;1.00
29777;DHT22;16677;52.224;7.484;2023-11-22T06:13:32;1.20;1.00
29777;DHT22;16677;52.224;7.484;2023-11-22T06:16:02;1.10;1.00
29777;DHT22;16677;52.224;7.484;2023-11-22T06:18:30;1.00;1.00
29777;DHT22;16677;52.224;7.484;2023-11-22T06:20:57;1.00;1.00
29777;DHT22;16677;52.224;7.484;2023-11-22T06:23:25;0.90;1.00
29777;DHT22;16677;52.224;7.484;2023-11-22T06:25:52;0.90;1.00
29777;DHT22;16677;52.224;7.484;2023-11-22T06:28:19;1.10;1.00
29777;DHT22;16677;52.224;7.484;2023-11-22T06:30:46;1.10;1.00
29777;DHT22;16677;52.224;7.484;2023-11-22T06:33:18;1.10;1.00
29777;DHT22;16677;52.224;7.484;2023-11-22T06:35:46;1.30;1.00
29777;DHT22;16677;52.224;7.484;2023-11-22T06:38:14;1.30;1.00
29777;DHT22;16677;52.224;7.484;2023-11-22T06:40:42;1.40;1.00
29777;DHT22;16677;52.224;7.484;2023-11-22T06:43:10;1.60;1.00
29777;DHT22;16677;52.224;7.484;2023-11-22T06:45:37;1.60;1.00
29777;DHT22;16677;52.224;7.484;2023-11-22T06:48:04;1.60;1.00
29777;DHT22;16677;52.224;7.484;2023-11-22T06:50:31;1.40;1.00
29777;DHT22;16677;52.224;7.484;2023-11-22T06:52:58;1.20;1.00
29777;DHT22;16677;52.224;7.484;2023-11-22T06:55:26;1.10;1.00
29777;DHT22;16677;52.224;7.484;2023-11-22T06:57:54;1.10;1.00
29777;DHT22;16677;52.224;7.484;2023-11-22T07:00:21;1.40;1.00
29777;DHT22;16677;52.224;7.484;2023-11-22T07:02:48;1.20;1.00
29777;DHT22;16677;52.224;7.484;2023-11-22T07:05:15;1.00;1.00
29777;DHT22;16677;52.224;7.484;2023-11-22T07:07:43;1.20;1.00
29777;DHT22;16677;52.224;7.484;2023-11-22T07:10:10;1.30;1.00
29777;DHT22;16677;52.224;7.484;2023-11-22T07:12:38;1.30;1.00
29777;DHT22;16677;52.224;7.484;2023-11-22T07:15:07;1.20;1.00
29777;DHT22;16677;52.224;7.484;2023-11-22T07:17:34;1.40;1.00
29777;DHT22;16677;52.224;7.484;2023-11-22T07:20:01;1.40;1.00
29777;DHT22;16677;52.224;7.484;2023-11-22T07:22:28;1.30;1.00
29777;DHT22;16677;52.224;7.484;2023-11-22T07:24:57;1.10;1.00
29777;DHT22;16677;52.224;7.484;2023-11-22T07:27:28;1.20;1.00
29777;DHT22;16677;52.224;7.484;2023-11-22T07:29:55;1.10;1.00
29777;DHT22;16677;52.224;7.484;2023-11-22T07:32:22;1.10;1.00
29777;DHT22;16677;52.224;7.484;2023-11-22T07:34:49;1.10;1.00
29777;DHT22;16677;52.224;7.484;2023-11-22T07:37:18;1.20;1.00
29777;DHT22;16677;52.224;7.484;2023-11-22T07:39:45;1.40;1.00
29777;DHT22;16677;52.224;7.484;2023-11-22T07:42:14;1.20;1.00
29777;DHT22;16677;52.224;7.484;2023-11-22T07:44:41;1.10;1.00
29777;DHT22;16677;52.224;7.484;2023-11-22T07:47:09;1.20;1.00
29777;DHT22;16677;52.224;7.484;2023-11-22T07:49:40;1.30;1.00
29777;DHT22;16677;52.224;7.484;2023-11-22T07:52:09;1.60;25.80
29777;DHT22;16677;52.224;7.484;2023-11-22T07:54:41;1.60;9.40
29777;DHT22;16677;52.224;7.484;2023-11-22T07:57:08;1.70;85.80
29777;DHT22;16677;52.224;7.484;2023-11-22T07:59:35;1.90;99.90
29777;DHT22;16677;52.224;7.484;2023-11-22T08:02:05;1.90;99.90
29777;DHT22;16677;52.224;7.484;2023-11-22T08:04:38;2.00;99.90
29777;DHT22;16677;52.224;7.484;2023-11-22T08:07:05;2.10;99.90
29777;DHT22;16677;52.224;7.484;2023-11-22T08:09:32;2.30;22.60
29777;DHT22;16677;52.224;7.484;2023-11-22T08:12:02;2.30;1.00
29777;DHT22;16677;52.224;7.484;2023-11-22T08:14:32;1.90;1.00
29777;DHT22;16677;52.224;7.484;2023-11-22T08:16:59;1.60;1.00
29777;DHT22;16677;52.224;7.484;2023-11-22T08:19:26;1.60;1.00
29777;DHT22;16677;52.224;7.484;2023-11-22T08:21:54;1.90;1.00
29777;DHT22;16677;52.224;7.484;2023-11-22T08:24:21;2.20;1.00
29777;DHT22;16677;52.224;7.484;2023-11-22T08:26:52;2.60;1.00
29777;DHT22;16677;52.224;7.484;2023-11-22T08:29:20;2.70;1.00
29777;DHT22;16677;52.224;7.484;2023-11-22T08:31:49;2.70;1.00
29777;DHT22;16677;52.224;7.484;2023-11-22T08:34:17;2.80;1.00
29777;DHT22;16677;52.224;7.484;2023-11-22T08:36:44;2.70;99.90
29777;DHT22;16677;52.224;7.484;2023-11-22T08:39:11;2.80;1.00
29777;DHT22;16677;52.224;7.484;2023-11-22T08:41:38;3.00;1.00
29777;DHT22;16677;52.224;7.484;2023-11-22T08:44:05;2.80;99.90
29777;DHT22;16677;52.224;7.484;2023-11-22T08:46:34;3.10;1.00
29777;DHT22;16677;52.224;7.484;2023-11-22T08:49:01;3.20;1.00
29777;DHT22;16677;52.224;7.484;2023-11-22T08:51:29;3.40;1.00
29777;DHT22;16677;52.224;7.484;2023-11-22T08:53:56;3.50;1.00
29777;DHT22;16677;52.224;7.484;2023-11-22T08:56:23;3.60;1.00
29777;DHT22;16677;52.224;7.484;2023-11-22T08:58:51;3.70;99.90
29777;DHT22;16677;52.224;7.484;2023-11-22T09:01:20;3.70;1.00
29777;DHT22;16677;52.224;7.484;2023-11-22T09:03:47;3.80;1.00
29777;DHT22;16677;52.224;7.484;2023-11-22T09:06:14;4.10;1.00
29777;DHT22;16677;52.224;7.484;2023-11-22T09:08:42;4.10;1.00
29777;DHT22;16677;52.224;7.484;2023-11-22T09:11:09;4.10;75.30
29777;DHT22;16677;52.224;7.484;2023-11-22T09:13:37;3.60;79.50
29777;DHT22;16677;52.224;7.484;2023-11-22T09:16:04;3.30;94.70
29777;DHT22;16677;52.224;7.484;2023-11-22T09:18:32;3.20;1.00
29777;DHT22;16677;52.224;7.484;2023-11-22T09:21:00;3.30;99.90
29777;DHT22;16677;52.224;7.484;2023-11-22T09:23:34;3.40;1.00
29777;DHT22;16677;52.224;7.484;2023-11-22T09:26:33;3.40;99.90
29777;DHT22;16677;52.224;7.484;2023-11-22T09:30:10;3.20;1.00
29777;DHT22;16677;52.224;7.484;2023-11-22T09:36:25;3.80;90.60
29777;DHT22;16677;52.224;7.484;2023-11-22T09:38:58;4.00;99.90
29777;DHT22;16677;52.224;7.484;2023-11-22T09:41:26;3.80;99.90
29777;DHT22;16677;52.224;7.484;2023-11-22T09:43:54;3.60;99.90
29777;DHT22;16677;52.224;7.484;2023-11-22T09:46:23;3.60;99.90
29777;DHT22;16677;52.224;7.484;2023-11-22T09:48:52;4.10;99.90
29777;DHT22;16677;52.224;7.484;2023-11-22T09:51:27;4.30;99.90
29777;DHT22;16677;52.224;7.484;2023-11-22T09:53:57;4.40;99.90
29777;DHT22;16677;52.224;7.484;2023-11-22T09:56:27;4.60;99.90
29777;DHT22;16677;52.224;7.484;2023-11-22T09:58:57;4.70;99.90
29777;DHT22;16677;52.224;7.484;2023-11-22T10:01:24;4.90;1.00
29777;DHT22;16677;52.224;7.484;2023-11-22T10:03:54;5.00;99.90
29777;DHT22;16677;52.224;7.484;2023-11-22T10:06:32;5.10;1.00
29777;DHT22;16677;52.224;7.484;2023-11-22T10:09:04;5.00;1.00
29777;DHT22;16677;52.224;7.484;2023-11-22T10:11:36;5.10;1.00
29777;DHT22;16677;52.224;7.484;2023-11-22T10:14:06;4.90;1.00
29777;DHT22;16677;52.224;7.484;2023-11-22T10:16:33;4.90;1.00
29777;DHT22;16677;52.224;7.484;2023-11-22T10:19:00;4.90;1.00
29777;DHT22;16677;52.224;7.484;2023-11-22T10:21:29;4.90;99.90
29777;DHT22;16677;52.224;7.484;2023-11-22T10:24:05;4.90;1.00
29777;DHT22;16677;52.224;7.484;2023-11-22T10:26:38;4.40;99.90
29777;DHT22;16677;52.224;7.484;2023-11-22T10:29:12;4.40;99.90
29777;DHT22;16677;52.224;7.484;2023-11-22T10:31:45;4.60;28.80
29777;DHT22;16677;52.224;7.484;2023-11-22T10:34:24;4.70;99.90
29777;DHT22;16677;52.224;7.484;2023-11-22T10:36:56;5.20;1.00
29777;DHT22;16677;52.224;7.484;2023-11-22T10:39:25;5.00;1.00
29777;DHT22;16677;52.224;7.484;2023-11-22T10:41:54;5.20;99.90
29777;DHT22;16677;52.224;7.484;2023-11-22T10:44:22;5.00;44.30
29777;DHT22;16677;52.224;7.484;2023-11-22T10:46:50;4.90;1.00
29777;DHT22;16677;52.224;7.484;2023-11-22T10:49:19;5.30;99.90
29777;DHT22;16677;52.224;7.484;2023-11-22T10:51:52;5.00;99.90
29777;DHT22;16677;52.224;7.484;2023-11-22T10:54:22;4.80;99.90
29777;DHT22;16677;52.224;7.484;2023-11-22T10:56:55;5.00;91.40
29777;DHT22;16677;52.224;7.484;2023-11-22T10:59:26;5.30;3.60
29777;DHT22;16677;52.224;7.484;2023-11-22T11:01:56;5.50;1.00
29777;DHT22;16677;52.224;7.484;2023-11-22T11:04:34;5.60;1.00
29777;DHT22;16677;52.224;7.484;2023-11-22T11:07:17;5.70;99.90
29777;DHT22;16677;52.224;7.484;2023-11-22T11:09:50;5.70;1.00
29777;DHT22;16677;52.224;7.484;2023-11-22T11:12:18;5.60;99.90
29777;DHT22;16677;52.224;7.484;2023-11-22T11:14:45;5.70;99.90
29777;DHT22;16677;52.224;7.484;2023-11-22T11:17:14;5.50;1.00
29777;DHT22;16677;52.224;7.484;2023-11-22T11:19:42;5.60;99.90
29777;DHT22;16677;52.224;7.484;2023-11-22T11:22:09;5.60;99.90
29777;DHT22;16677;52.224;7.484;2023-11-22T11:24:40;5.60;99.90
29777;DHT22;16677;52.224;7.484;2023-11-22T11:27:10;5.80;99.90
29777;DHT22;16677;52.224;7.484;2023-11-22T11:29:37;5.70;1.00
29777;DHT22;16677;52.224;7.484;2023-11-22T11:32:11;5.80;1.00
29777;DHT22;16677;52.224;7.484;2023-11-22T11:34:48;5.70;1.00
29777;DHT22;16677;52.224;7.484;2023-11-22T11:37:21;5.70;25.10
29777;DHT22;16677;52.224;7.484;2023-11-22T11:39:48;5.70;1.00
29777;DHT22;16677;52.224;7.484;2023-11-22T11:42:15;5.60;1.00
29777;DHT22;16677;52.224;7.484;2023-11-22T11:45:03;5.50;1.00
29777;DHT22;16677;52.224;7.484;2023-11-22T11:47:33;5.30;1.00
29777;DHT22;16677;52.224;7.484;2023-11-22T11:50:01;5.20;26.90
29777;DHT22;16677;52.224;7.484;2023-11-22T11:52:29;5.30;99.90
29777;DHT22;16677;52.224;7.484;2023-11-22T11:54:58;5.50;99.90
29777;DHT22;16677;52.224;7.484;2023-11-22T11:57:31;5.70;66.70
29777;DHT22;16677;52.224;7.484;2023-11-22T11:59:59;5.70;1.00
29777;DHT22;16677;52.224;7.484;2023-11-22T12:02:26;5.60;99.90
29777;DHT22;16677;52.224;7.484;2023-11-22T12:04:53;5.40;99.90
29777;DHT22;16677;52.224;7.484;2023-11-22T12:07:21;5.30;1.00
29777;DHT22;16677;52.224;7.484;2023-11-22T12:09:48;5.30;1.00
29777;DHT22;16677;52.224;7.484;2023-11-22T12:12:15;5.40;1.00
29777;DHT22;16677;52.224;7.484;2023-11-22T12:14:42;5.60;84.40
29777;DHT22;16677;52.224;7.484;2023-11-22T12:17:10;5.60;99.90
29777;DHT22;16677;52.224;7.484;2023-11-22T12:19:37;5.70;99.90
29777;DHT22;16677;52.224;7.484;2023-11-22T12:22:05;5.90;99.90
29777;DHT22;16677;52.224;7.484;2023-11-22T12:24:34;5.90;99.90
29777;DHT22;16677;52.224;7.484;2023-11-22T12:27:02;6.10;99.90
29777;DHT22;16677;52.224;7.484;2023-11-22T12:29:29;6.00;94.70
29777;DHT22;16677;52.224;7.484;2023-11-22T12:31:56;6.10;48.30
29777;DHT22;16677;52.224;7.484;2023-11-22T12:34:23;5.80;23.20
29777;DHT22;16677;52.224;7.484;2023-11-22T12:36:53;5.80;9.80
29777;DHT22;16677;52.224;7.484;2023-11-22T12:39:20;5.80;17.60
29777;DHT22;16677;52.224;7.484;2023-11-22T12:41:49;5.80;1.00
29777;DHT22;16677;52.224;7.484;2023-11-22T12:44:32;5.70;6.60
29777;DHT22;16677;52.224;7.484;2023-11-22T12:47:00;5.80;56.40
29777;DHT22;16677;52.224;7.484;2023-11-22T12:49:31;6.00;99.90
29777;DHT22;16677;52.224;7.484;2023-11-22T12:51:59;6.20;99.90
29777;DHT22;16677;52.224;7.484;2023-11-22T12:54:26;6.30;99.90
29777;DHT22;16677;52.224;7.484;2023-11-22T12:56:54;6.40;99.90
29777;DHT22;16677;52.224;7.484;2023-11-22T12:59:26;6.10;99.90
29777;DHT22;16677;52.224;7.484;2023-11-22T13:01:58;6.20;99.90
29777;DHT22;16677;52.224;7.484;2023-11-22T13:04:28;5.90;1.00
29777;DHT22;16677;52.224;7.484;2023-11-22T13:06:59;6.20;1.00
29777;DHT22;16677;52.224;7.484;2023-11-22T13:09:27;6.30;1.00
29777;DHT22;16677;52.224;7.484;2023-11-22T13:11:54;6.20;1.00
29777;DHT22;16677;52.224;7.484;2023-11-22T13:14:21;6.40;1.00
29777;DHT22;16677;52.224;7.484;2023-11-22T13:16:50;6.20;1.00
29777;DHT22;16677;52.224;7.484;2023-11-22T13:19:17;6.10;1.00
29777;DHT22;16677;52.224;7.484;2023-11-22T13:21:44;6.00;1.00
29777;DHT22;16677;52.224;7.484;2023-11-22T13:24:11;6.00;1.00
29777;DHT22;16677;52.224;7.484;2023-11-22T13:26:40;6.00;1.00
29777;DHT22;16677;52.224;7.484;2023-11-22T13:29:08;6.00;1.00
29777;DHT22;16677;52.224;7.484;2023-11-22T13:31:35;5.90;1.00
29777;DHT22;16677;52.224;7.484;2023-11-22T13:34:02;5.80;1.00
29777;DHT22;16677;52.224;7.484;2023-11-22T13:36:29;5.90;1.00
29777;DHT22;16677;52.224;7.484;2023-11-22T13:38:58;5.90;1.00
29777;DHT22;16677;52.224;7.484;2023-11-22T13:41:25;6.00;1.00
29777;DHT22;16677;52.224;7.484;2023-11-22T13:43:52;5.80;1.00
29777;DHT22;16677;52.224;7.484;2023-11-22T13:46:19;5.80;1.00
29777;DHT22;16677;52.224;7.484;2023-11-22T13:48:47;5.90;1.00
29777;DHT22;16677;52.224;7.484;2023-11-22T13:51:14;6.00;1.00
29777;DHT22;16677;52.224;7.484;2023-11-22T13:53:41;5.90;1.00
29777;DHT22;16677;52.224;7.484;2023-11-22T13:56:11;5.90;1.00
29777;DHT22;16677;52.224;7.484;2023-11-22T13:58:41;6.00;1.00
29777;DHT22;16677;52.224;7.484;2023-11-22T14:01:09;5.90;1.00
29777;DHT22;16677;52.224;7.484;2023-11-22T14:03:42;6.00;1.00
29777;DHT22;16677;52.224;7.484;2023-11-22T14:06:10;6.00;1.00
29777;DHT22;16677;52.224;7.484;2023-11-22T14:08:40;6.00;1.00
29777;DHT22;16677;52.224;7.484;2023-11-22T14:11:07;6.20;1.00
29777;DHT22;16677;52.224;7.484;2023-11-22T14:13:34;6.00;1.00
29777;DHT22;16677;52.224;7.484;2023-11-22T14:16:01;6.00;1.00
29777;DHT22;16677;52.224;7.484;2023-11-22T14:18:31;6.00;1.00
29777;DHT22;16677;52.224;7.484;2023-11-22T14:20:58;5.90;1.00
29777;DHT22;16677;52.224;7.484;2023-11-22T14:23:28;6.00;1.00
29777;DHT22;16677;52.224;7.484;2023-11-22T14:25:55;6.00;1.00
29777;DHT22;16677;52.224;7.484;2023-11-22T14:28:22;5.90;1.00
29777;DHT22;16677;52.224;7.484;2023-11-22T14:30:50;5.90;1.00
29777;DHT22;16677;52.224;7.484;2023-11-22T14:33:21;5.90;1.00
29777;DHT22;16677;52.224;7.484;2023-11-22T14:35:49;5.80;1.00
29777;DHT22;16677;52.224;7.484;2023-11-22T14:38:16;5.80;1.00
29777;DHT22;16677;52.224;7.484;2023-11-22T14:40:45;5.60;10.40
29777;DHT22;16677;52.224;7.484;2023-11-22T14:43:13;5.60;9.40
29777;DHT22;16677;52.224;7.484;2023-11-22T14:45:40;5.80;12.40
29777;DHT22;16677;52.224;7.484;2023-11-22T14:48:07;5.60;32.10
29777;DHT22;16677;52.224;7.484;2023-11-22T14:50:36;5.50;35.50
29777;DHT22;16677;52.224;7.484;2023-11-22T14:53:03;5.60;47.10
29777;DHT22;16677;52.224;7.484;2023-11-22T14:55:30;5.60;32.10
29777;DHT22;16677;52.224;7.484;2023-11-22T14:57:59;5.60;28.90
29777;DHT22;16677;52.224;7.484;2023-11-22T15:00:27;5.60;14.10
29777;DHT22;16677;52.224;7.484;2023-11-22T15:02:55;5.60;30.00
29777;DHT22;16677;52.224;7.484;2023-11-22T15:05:24;5.60;38.90
29777;DHT22;16677;52.224;7.484;2023-11-22T15:07:53;5.60;19.70
29777;DHT22;16677;52.224;7.484;2023-11-22T15:10:23;5.70;27.00
29777;DHT22;16677;52.224;7.484;2023-11-22T15:12:51;5.70;26.70
29777;DHT22;16677;52.224;7.484;2023-11-22T15:15:18;5.60;22.50
29777;DHT22;16677;52.224;7.484;2023-11-22T15:17:46;5.60;17.00
29777;DHT22;16677;52.224;7.484;2023-11-22T15:20:13;5.70;30.60
29777;DHT22;16677;52.224;7.484;2023-11-22T15:22:43;5.60;38.00
29777;DHT22;16677;52.224;7.484;2023-11-22T15:25:11;5.50;41.20
29777;DHT22;16677;52.224;7.484;2023-11-22T15:27:38;5.50;38.10
29777;DHT22;16677;52.224;7.484;2023-11-22T15:30:06;5.60;24.50
29777;DHT22;16677;52.224;7.484;2023-11-22T15:32:35;5.40;32.80
29777;DHT22;16677;52.224;7.484;2023-11-22T15:35:03;5.60;53.50
29777;DHT22;16677;52.224;7.484;2023-11-22T15:37:32;5.60;29.70
29777;DHT22;16677;52.224;7.484;2023-11-22T15:39:59;5.50;34.90
29777;DHT22;16677;52.224;7.484;2023-11-22T15:42:27;5.50;44.80
29777;DHT22;16677;52.224;7.484;2023-11-22T15:44:54;5.50;50.60
29777;DHT22;16677;52.224;7.484;2023-11-22T15:47:21;5.40;66.00
29777;DHT22;16677;52.224;7.484;2023-11-22T15:49:48;5.50;62.80
29777;DHT22;16677;52.224;7.484;2023-11-22T15:52:16;5.40;73.10
29777;DHT22;16677;52.224;7.484;2023-11-22T15:54:43;5.30;61.10
29777;DHT22;16677;52.224;7.484;2023-11-22T15:57:10;5.20;78.80
29777;DHT22;16677;52.224;7.484;2023-11-22T15:59:36;5.10;99.90
29777;DHT22;16677;52.224;7.484;2023-11-22T16:02:07;5.10;99.90
29777;DHT22;16677;52.224;7.484;2023-11-22T16:04:34;5.20;99.90
29777;DHT22;16677;52.224;7.484;2023-11-22T16:07:02;5.20;99.90
29777;DHT22;16677;52.224;7.484;2023-11-22T16:09:29;5.10;99.90
29777;DHT22;16677;52.224;7.484;2023-11-22T16:11:56;5.20;99.90
29777;DHT22;16677;52.224;7.484;2023-11-22T16:14:24;5.20;99.10
29777;DHT22;16677;52.224;7.484;2023-11-22T16:20:54;5.30;99.90
29777;DHT22;16677;52.224;7.484;2023-11-22T16:26:52;5.10;99.90
29777;DHT22;16677;52.224;7.484;2023-11-22T16:29:19;5.10;99.90
29777;DHT22;16677;52.224;7.484;2023-11-22T16:31:46;5.20;99.90
29777;DHT22;16677;52.224;7.484;2023-11-22T16:34:14;5.20;99.90
29777;DHT22;16677;52.224;7.484;2023-11-22T16:36:41;5.20;99.90
29777;DHT22;16677;52.224;7.484;2023-11-22T16:39:08;5.20;99.90
29777;DHT22;16677;52.224;7.484;2023-11-22T16:41:52;5.10;99.90